sensor_id;sensor_type;location;lat;lon;timestamp;P1;durP1;ratioP1;P2;durP2;ratioP2
485;SDS011;229;48.734;9.340;2023-07-16T00:01:00;6.30;;;3.87;;
485;SDS011;229;48.734;9.340;2023-07-16T00:03:29;4.87;;;3.73;;
485;SDS011;229;48.734;9.340;2023-07-16T00:05:56;7.10;;;3.93;;
485;SDS011;229;48.734;9.340;2023-07-16T00:08:23;9.90;;;4.10;;
485;SDS011;229;48.734;9.340;2023-07-16T00:10:50;5.53;;;3.70;;
485;SDS011;229;48.734;9.340;2023-07-16T00:13:17;5.63;;;3.47;;
485;SDS011;229;48.734;9.340;2023-07-16T00:15:44;6.60;;;3.37;;
485;SDS011;229;48.734;9.340;2023-07-16T00:18:12;5.90;;;3.70;;
485;SDS011;229;48.734;9.340;2023-07-16T00:20:40;3.30;;;3.20;;
485;SDS011;229;48.734;9.340;2023-07-16T00:23:07;4.87;;;3.37;;
485;SDS011;229;48.734;9.340;2023-07-16T00:25:34;5.27;;;2.47;;
485;SDS011;229;48.734;9.340;2023-07-16T00:28:02;5.70;;;2.80;;
485;SDS011;229;48.734;9.340;2023-07-16T00:30:29;7.57;;;2.87;;
485;SDS011;229;48.734;9.340;2023-07-16T00:32:56;3.77;;;2.90;;
485;SDS011;229;48.734;9.340;2023-07-16T00:35:23;3.47;;;2.80;;
485;SDS011;229;48.734;9.340;2023-07-16T00:37:52;4.20;;;3.03;;
485;SDS011;229;48.734;9.340;2023-07-16T00:40:19;7.13;;;3.03;;
485;SDS011;229;48.734;9.340;2023-07-16T00:42:46;4.23;;;3.00;;
485;SDS011;229;48.734;9.340;2023-07-16T00:45:13;4.77;;;2.67;;
485;SDS011;229;48.734;9.340;2023-07-16T00:47:41;10.97;;;2.93;;
485;SDS011;229;48.734;9.340;2023-07-16T00:50:09;3.70;;;2.43;;
485;SDS011;229;48.734;9.340;2023-07-16T00:52:37;3.67;;;2.80;;
485;SDS011;229;48.734;9.340;2023-07-16T00:55:07;3.03;;;2.30;;
485;SDS011;229;48.734;9.340;2023-07-16T00:57:34;4.90;;;2.60;;
485;SDS011;229;48.734;9.340;2023-07-16T01:00:02;2.80;;;2.70;;
485;SDS011;229;48.734;9.340;2023-07-16T01:02:30;7.83;;;2.60;;
485;SDS011;229;48.734;9.340;2023-07-16T01:04:57;3.93;;;2.43;;
485;SDS011;229;48.734;9.340;2023-07-16T01:07:25;3.57;;;2.93;;
485;SDS011;229;48.734;9.340;2023-07-16T01:09:54;5.50;;;3.10;;
485;SDS011;229;48.734;9.340;2023-07-16T01:12:22;8.20;;;2.63;;
485;SDS011;229;48.734;9.340;2023-07-16T01:14:50;4.87;;;2.30;;
485;SDS011;229;48.734;9.340;2023-07-16T01:17:18;7.83;;;2.60;;
485;SDS011;229;48.734;9.340;2023-07-16T01:19:45;6.20;;;2.83;;
485;SDS011;229;48.734;9.340;2023-07-16T01:22:18;5.30;;;2.63;;
485;SDS011;229;48.734;9.340;2023-07-16T01:25:05;4.13;;;2.60;;
485;SDS011;229;48.734;9.340;2023-07-16T01:27:46;5.53;;;2.50;;
485;SDS011;229;48.734;9.340;2023-07-16T01:30:18;3.43;;;2.63;;
485;SDS011;229;48.734;9.340;2023-07-16T01:32:46;7.20;;;2.20;;
485;SDS011;229;48.734;9.340;2023-07-16T01:35:13;5.43;;;2.73;;
485;SDS011;229;48.734;9.340;2023-07-16T01:37:41;4.90;;;2.80;;
485;SDS011;229;48.734;9.340;2023-07-16T01:40:08;4.13;;;2.43;;
485;SDS011;229;48.734;9.340;2023-07-16T01:42:36;3.93;;;2.03;;
485;SDS011;229;48.734;9.340;2023-07-16T01:45:03;4.57;;;2.40;;
485;SDS011;229;48.734;9.340;2023-07-16T01:47:34;3.73;;;2.30;;
485;SDS011;229;48.734;9.340;2023-07-16T01:50:06;5.57;;;2.30;;
485;SDS011;229;48.734;9.340;2023-07-16T01:52:34;4.40;;;2.67;;
485;SDS011;229;48.734;9.340;2023-07-16T01:55:01;6.50;;;3.07;;
485;SDS011;229;48.734;9.340;2023-07-16T01:57:28;4.20;;;2.30;;
485;SDS011;229;48.734;9.340;2023-07-16T01:59:55;5.20;;;2.70;;
485;SDS011;229;48.734;9.340;2023-07-16T02:02:22;2.97;;;2.33;;
485;SDS011;229;48.734;9.340;2023-07-16T02:04:51;4.13;;;2.50;;
485;SDS011;229;48.734;9.340;2023-07-16T02:07:18;2.73;;;2.20;;
485;SDS011;229;48.734;9.340;2023-07-16T02:09:45;3.23;;;2.00;;
485;SDS011;229;48.734;9.340;2023-07-16T02:12:12;7.27;;;2.50;;
485;SDS011;229;48.734;9.340;2023-07-16T02:14:39;4.60;;;2.40;;
485;SDS011;229;48.734;9.340;2023-07-16T02:17:07;4.20;;;2.57;;
485;SDS011;229;48.734;9.340;2023-07-16T02:19:34;5.20;;;2.37;;
485;SDS011;229;48.734;9.340;2023-07-16T02:22:02;3.93;;;2.20;;
485;SDS011;229;48.734;9.340;2023-07-16T02:24:30;8.23;;;2.77;;
485;SDS011;229;48.734;9.340;2023-07-16T02:26:57;5.00;;;2.63;;
485;SDS011;229;48.734;9.340;2023-07-16T02:29:24;3.57;;;2.47;;
485;SDS011;229;48.734;9.340;2023-07-16T02:31:51;4.50;;;2.33;;
485;SDS011;229;48.734;9.340;2023-07-16T02:34:18;4.43;;;2.50;;
485;SDS011;229;48.734;9.340;2023-07-16T02:36:46;4.13;;;2.20;;
485;SDS011;229;48.734;9.340;2023-07-16T02:39:14;6.20;;;2.70;;
485;SDS011;229;48.734;9.340;2023-07-16T02:41:42;3.60;;;2.20;;
485;SDS011;229;48.734;9.340;2023-07-16T02:44:09;2.67;;;2.00;;
485;SDS011;229;48.734;9.340;2023-07-16T02:46:36;3.97;;;2.20;;
485;SDS011;229;48.734;9.340;2023-07-16T02:49:03;3.57;;;2.10;;
485;SDS011;229;48.734;9.340;2023-07-16T02:51:30;2.67;;;1.97;;
485;SDS011;229;48.734;9.340;2023-07-16T02:53:57;2.93;;;2.30;;
485;SDS011;229;48.734;9.340;2023-07-16T02:56:26;5.10;;;2.47;;
485;SDS011;229;48.734;9.340;2023-07-16T02:58:53;3.97;;;2.10;;
485;SDS011;229;48.734;9.340;2023-07-16T03:01:20;2.70;;;2.23;;
485;SDS011;229;48.734;9.340;2023-07-16T03:03:48;5.33;;;2.27;;
485;SDS011;229;48.734;9.340;2023-07-16T03:06:15;3.00;;;2.17;;
485;SDS011;229;48.734;9.340;2023-07-16T03:08:42;5.93;;;2.10;;
485;SDS011;229;48.734;9.340;2023-07-16T03:11:10;2.40;;;2.13;;
485;SDS011;229;48.734;9.340;2023-07-16T03:13:39;4.17;;;2.60;;
485;SDS011;229;48.734;9.340;2023-07-16T03:16:06;4.27;;;2.13;;
485;SDS011;229;48.734;9.340;2023-07-16T03:18:33;2.70;;;2.30;;
485;SDS011;229;48.734;9.340;2023-07-16T03:21:00;3.80;;;2.40;;
485;SDS011;229;48.734;9.340;2023-07-16T03:23:27;12.10;;;3.07;;
485;SDS011;229;48.734;9.340;2023-07-16T03:25:55;3.90;;;3.03;;
485;SDS011;229;48.734;9.340;2023-07-16T03:28:22;3.30;;;3.10;;
485;SDS011;229;48.734;9.340;2023-07-16T03:30:51;11.20;;;3.20;;
485;SDS011;229;48.734;9.340;2023-07-16T03:33:19;3.83;;;2.90;;
485;SDS011;229;48.734;9.340;2023-07-16T03:35:46;3.20;;;3.00;;
485;SDS011;229;48.734;9.340;2023-07-16T03:38:14;6.90;;;3.43;;
485;SDS011;229;48.734;9.340;2023-07-16T03:40:42;5.70;;;3.10;;
485;SDS011;229;48.734;9.340;2023-07-16T03:43:09;6.03;;;3.00;;
485;SDS011;229;48.734;9.340;2023-07-16T03:45:36;3.97;;;3.00;;
485;SDS011;229;48.734;9.340;2023-07-16T03:48:05;5.30;;;3.20;;
485;SDS011;229;48.734;9.340;2023-07-16T03:50:32;4.00;;;2.70;;
485;SDS011;229;48.734;9.340;2023-07-16T03:53:00;4.80;;;2.73;;
485;SDS011;229;48.734;9.340;2023-07-16T03:55:28;7.63;;;3.30;;
485;SDS011;229;48.734;9.340;2023-07-16T03:57:55;3.40;;;3.13;;
485;SDS011;229;48.734;9.340;2023-07-16T04:00:22;6.13;;;3.03;;
485;SDS011;229;48.734;9.340;2023-07-16T04:02:49;9.33;;;2.70;;
485;SDS011;229;48.734;9.340;2023-07-16T04:05:18;5.53;;;2.60;;
485;SDS011;229;48.734;9.340;2023-07-16T04:07:45;11.37;;;3.60;;
485;SDS011;229;48.734;9.340;2023-07-16T04:10:13;4.03;;;2.77;;
485;SDS011;229;48.734;9.340;2023-07-16T04:12:40;4.27;;;3.20;;
485;SDS011;229;48.734;9.340;2023-07-16T04:15:08;6.07;;;2.70;;
485;SDS011;229;48.734;9.340;2023-07-16T04:17:36;6.57;;;2.90;;
485;SDS011;229;48.734;9.340;2023-07-16T04:20:03;5.90;;;3.00;;
485;SDS011;229;48.734;9.340;2023-07-16T04:22:33;6.17;;;3.10;;
485;SDS011;229;48.734;9.340;2023-07-16T04:25:00;4.07;;;2.90;;
485;SDS011;229;48.734;9.340;2023-07-16T04:27:28;3.73;;;2.47;;
485;SDS011;229;48.734;9.340;2023-07-16T04:29:56;6.50;;;2.57;;
485;SDS011;229;48.734;9.340;2023-07-16T04:32:23;3.30;;;2.40;;
485;SDS011;229;48.734;9.340;2023-07-16T04:34:50;4.10;;;2.50;;
485;SDS011;229;48.734;9.340;2023-07-16T04:37:17;8.23;;;2.53;;
485;SDS011;229;48.734;9.340;2023-07-16T04:39:46;2.90;;;2.47;;
485;SDS011;229;48.734;9.340;2023-07-16T04:42:13;8.17;;;3.53;;
485;SDS011;229;48.734;9.340;2023-07-16T04:44:41;4.60;;;2.83;;
485;SDS011;229;48.734;9.340;2023-07-16T04:47:09;4.47;;;2.90;;
485;SDS011;229;48.734;9.340;2023-07-16T04:49:36;3.30;;;3.00;;
485;SDS011;229;48.734;9.340;2023-07-16T04:52:04;6.23;;;2.60;;
485;SDS011;229;48.734;9.340;2023-07-16T04:54:34;4.87;;;2.60;;
485;SDS011;229;48.734;9.340;2023-07-16T04:57:03;2.73;;;2.60;;
485;SDS011;229;48.734;9.340;2023-07-16T04:59:31;6.90;;;2.40;;
485;SDS011;229;48.734;9.340;2023-07-16T05:01:58;5.23;;;3.00;;
485;SDS011;229;48.734;9.340;2023-07-16T05:04:25;6.87;;;2.90;;
485;SDS011;229;48.734;9.340;2023-07-16T05:06:52;11.53;;;2.90;;
485;SDS011;229;48.734;9.340;2023-07-16T05:09:19;2.77;;;2.17;;
485;SDS011;229;48.734;9.340;2023-07-16T05:11:46;4.10;;;2.70;;
485;SDS011;229;48.734;9.340;2023-07-16T05:14:15;4.70;;;2.93;;
485;SDS011;229;48.734;9.340;2023-07-16T05:16:42;6.10;;;3.00;;
485;SDS011;229;48.734;9.340;2023-07-16T05:19:09;8.40;;;3.20;;
485;SDS011;229;48.734;9.340;2023-07-16T05:21:37;6.77;;;2.50;;
485;SDS011;229;48.734;9.340;2023-07-16T05:24:04;5.47;;;2.90;;
485;SDS011;229;48.734;9.340;2023-07-16T05:26:31;6.70;;;2.93;;
485;SDS011;229;48.734;9.340;2023-07-16T05:28:59;6.30;;;2.73;;
485;SDS011;229;48.734;9.340;2023-07-16T05:31:27;4.30;;;2.80;;
485;SDS011;229;48.734;9.340;2023-07-16T05:33:54;4.67;;;2.60;;
485;SDS011;229;48.734;9.340;2023-07-16T05:36:22;6.80;;;3.13;;
485;SDS011;229;48.734;9.340;2023-07-16T05:38:49;6.70;;;3.10;;
485;SDS011;229;48.734;9.340;2023-07-16T05:41:16;6.13;;;2.40;;
485;SDS011;229;48.734;9.340;2023-07-16T05:43:43;4.57;;;2.40;;
485;SDS011;229;48.734;9.340;2023-07-16T05:46:10;10.03;;;2.90;;
485;SDS011;229;48.734;9.340;2023-07-16T05:48:39;5.40;;;2.97;;
485;SDS011;229;48.734;9.340;2023-07-16T05:51:06;2.83;;;2.40;;
485;SDS011;229;48.734;9.340;2023-07-16T05:53:33;4.73;;;2.80;;
485;SDS011;229;48.734;9.340;2023-07-16T05:56:00;10.60;;;3.17;;
485;SDS011;229;48.734;9.340;2023-07-16T05:58:28;4.53;;;2.83;;
485;SDS011;229;48.734;9.340;2023-07-16T06:00:55;11.17;;;3.10;;
485;SDS011;229;48.734;9.340;2023-07-16T06:03:22;2.60;;;2.37;;
485;SDS011;229;48.734;9.340;2023-07-16T06:05:51;6.53;;;3.20;;
485;SDS011;229;48.734;9.340;2023-07-16T06:08:18;3.70;;;2.83;;
485;SDS011;229;48.734;9.340;2023-07-16T06:10:46;4.27;;;2.87;;
485;SDS011;229;48.734;9.340;2023-07-16T06:13:13;7.63;;;2.70;;
485;SDS011;229;48.734;9.340;2023-07-16T06:15:40;3.60;;;2.70;;
485;SDS011;229;48.734;9.340;2023-07-16T06:18:07;7.73;;;3.40;;
485;SDS011;229;48.734;9.340;2023-07-16T06:20:34;8.10;;;3.20;;
485;SDS011;229;48.734;9.340;2023-07-16T06:23:03;7.97;;;3.43;;
485;SDS011;229;48.734;9.340;2023-07-16T06:25:30;9.00;;;3.00;;
485;SDS011;229;48.734;9.340;2023-07-16T06:27:57;8.80;;;3.40;;
485;SDS011;229;48.734;9.340;2023-07-16T06:30:24;6.03;;;3.53;;
485;SDS011;229;48.734;9.340;2023-07-16T06:32:52;5.93;;;3.00;;
485;SDS011;229;48.734;9.340;2023-07-16T06:35:19;5.33;;;3.30;;
485;SDS011;229;48.734;9.340;2023-07-16T06:37:46;8.23;;;3.57;;
485;SDS011;229;48.734;9.340;2023-07-16T06:40:15;6.30;;;3.67;;
485;SDS011;229;48.734;9.340;2023-07-16T06:42:42;5.83;;;3.37;;
485;SDS011;229;48.734;9.340;2023-07-16T06:45:10;9.53;;;3.43;;
485;SDS011;229;48.734;9.340;2023-07-16T06:47:37;4.23;;;3.40;;
485;SDS011;229;48.734;9.340;2023-07-16T06:50:04;8.63;;;3.40;;
485;SDS011;229;48.734;9.340;2023-07-16T06:52:32;4.17;;;3.03;;
485;SDS011;229;48.734;9.340;2023-07-16T06:54:59;11.67;;;3.43;;
485;SDS011;229;48.734;9.340;2023-07-16T06:57:28;6.90;;;3.43;;
485;SDS011;229;48.734;9.340;2023-07-16T06:59:55;9.53;;;3.40;;
485;SDS011;229;48.734;9.340;2023-07-16T07:02:22;10.63;;;3.83;;
485;SDS011;229;48.734;9.340;2023-07-16T07:04:49;6.80;;;3.20;;
485;SDS011;229;48.734;9.340;2023-07-16T07:07:17;6.00;;;3.00;;
485;SDS011;229;48.734;9.340;2023-07-16T07:09:46;6.53;;;3.53;;
485;SDS011;229;48.734;9.340;2023-07-16T07:12:14;4.80;;;3.43;;
485;SDS011;229;48.734;9.340;2023-07-16T07:14:43;6.70;;;3.37;;
485;SDS011;229;48.734;9.340;2023-07-16T07:17:10;5.40;;;4.20;;
485;SDS011;229;48.734;9.340;2023-07-16T07:19:37;5.27;;;3.30;;
485;SDS011;229;48.734;9.340;2023-07-16T07:22:04;5.33;;;3.50;;
485;SDS011;229;48.734;9.340;2023-07-16T07:24:31;6.07;;;3.30;;
485;SDS011;229;48.734;9.340;2023-07-16T07:26:59;7.03;;;3.87;;
485;SDS011;229;48.734;9.340;2023-07-16T07:29:26;4.43;;;3.60;;
485;SDS011;229;48.734;9.340;2023-07-16T07:31:54;6.80;;;3.80;;
485;SDS011;229;48.734;9.340;2023-07-16T07:34:21;4.83;;;3.87;;
485;SDS011;229;48.734;9.340;2023-07-16T07:36:49;5.10;;;3.33;;
485;SDS011;229;48.734;9.340;2023-07-16T07:39:16;3.77;;;3.40;;
485;SDS011;229;48.734;9.340;2023-07-16T07:41:43;4.10;;;3.80;;
485;SDS011;229;48.734;9.340;2023-07-16T07:44:11;5.07;;;3.80;;
485;SDS011;229;48.734;9.340;2023-07-16T07:46:38;7.87;;;3.67;;
485;SDS011;229;48.734;9.340;2023-07-16T07:49:06;7.17;;;3.63;;
485;SDS011;229;48.734;9.340;2023-07-16T07:51:36;7.37;;;3.50;;
485;SDS011;229;48.734;9.340;2023-07-16T07:54:04;5.20;;;3.40;;
485;SDS011;229;48.734;9.340;2023-07-16T07:56:31;9.30;;;4.50;;
485;SDS011;229;48.734;9.340;2023-07-16T07:58:58;4.47;;;3.90;;
485;SDS011;229;48.734;9.340;2023-07-16T08:01:26;4.70;;;4.03;;
485;SDS011;229;48.734;9.340;2023-07-16T08:03:57;6.30;;;3.60;;
485;SDS011;229;48.734;9.340;2023-07-16T08:06:29;4.70;;;4.40;;
485;SDS011;229;48.734;9.340;2023-07-16T08:08:56;7.30;;;4.30;;
485;SDS011;229;48.734;9.340;2023-07-16T08:11:23;8.37;;;4.17;;
485;SDS011;229;48.734;9.340;2023-07-16T08:13:51;4.97;;;3.60;;
485;SDS011;229;48.734;9.340;2023-07-16T08:16:20;9.77;;;3.70;;
485;SDS011;229;48.734;9.340;2023-07-16T08:18:48;6.73;;;3.77;;
485;SDS011;229;48.734;9.340;2023-07-16T08:21:15;6.90;;;4.13;;
485;SDS011;229;48.734;9.340;2023-07-16T08:23:46;7.50;;;3.77;;
485;SDS011;229;48.734;9.340;2023-07-16T08:26:13;3.93;;;3.23;;
485;SDS011;229;48.734;9.340;2023-07-16T08:28:42;8.47;;;4.50;;
485;SDS011;229;48.734;9.340;2023-07-16T08:31:09;3.73;;;3.53;;
485;SDS011;229;48.734;9.340;2023-07-16T08:33:37;6.03;;;4.00;;
485;SDS011;229;48.734;9.340;2023-07-16T08:36:05;3.90;;;3.70;;
485;SDS011;229;48.734;9.340;2023-07-16T08:38:32;6.43;;;4.00;;
485;SDS011;229;48.734;9.340;2023-07-16T08:41:00;4.73;;;4.13;;
485;SDS011;229;48.734;9.340;2023-07-16T08:43:28;6.50;;;3.93;;
485;SDS011;229;48.734;9.340;2023-07-16T08:45:55;5.60;;;3.40;;
485;SDS011;229;48.734;9.340;2023-07-16T08:48:23;6.30;;;3.67;;
485;SDS011;229;48.734;9.340;2023-07-16T08:50:50;4.73;;;3.53;;
485;SDS011;229;48.734;9.340;2023-07-16T08:53:17;5.73;;;3.40;;
485;SDS011;229;48.734;9.340;2023-07-16T08:55:48;4.80;;;3.80;;
485;SDS011;229;48.734;9.340;2023-07-16T08:58:17;4.83;;;3.70;;
485;SDS011;229;48.734;9.340;2023-07-16T09:00:44;7.10;;;3.80;;
485;SDS011;229;48.734;9.340;2023-07-16T09:03:13;6.17;;;3.60;;
485;SDS011;229;48.734;9.340;2023-07-16T09:05:41;8.23;;;3.60;;
485;SDS011;229;48.734;9.340;2023-07-16T09:08:09;6.93;;;3.97;;
485;SDS011;229;48.734;9.340;2023-07-16T09:10:37;4.10;;;3.20;;
485;SDS011;229;48.734;9.340;2023-07-16T09:13:04;7.37;;;3.80;;
485;SDS011;229;48.734;9.340;2023-07-16T09:15:32;6.07;;;4.10;;
485;SDS011;229;48.734;9.340;2023-07-16T09:18:00;4.30;;;3.43;;
485;SDS011;229;48.734;9.340;2023-07-16T09:20:27;3.60;;;3.40;;
485;SDS011;229;48.734;9.340;2023-07-16T09:22:55;6.17;;;3.37;;
485;SDS011;229;48.734;9.340;2023-07-16T09:25:25;7.93;;;3.33;;
485;SDS011;229;48.734;9.340;2023-07-16T09:27:52;6.20;;;3.70;;
485;SDS011;229;48.734;9.340;2023-07-16T09:30:19;3.53;;;3.27;;
485;SDS011;229;48.734;9.340;2023-07-16T09:32:48;5.07;;;3.80;;
485;SDS011;229;48.734;9.340;2023-07-16T09:35:16;4.87;;;3.23;;
485;SDS011;229;48.734;9.340;2023-07-16T09:37:44;7.20;;;4.07;;
485;SDS011;229;48.734;9.340;2023-07-16T09:40:11;5.73;;;3.60;;
485;SDS011;229;48.734;9.340;2023-07-16T09:42:39;5.80;;;3.50;;
485;SDS011;229;48.734;9.340;2023-07-16T09:45:06;5.27;;;3.40;;
485;SDS011;229;48.734;9.340;2023-07-16T09:47:34;5.30;;;3.90;;
485;SDS011;229;48.734;9.340;2023-07-16T09:50:03;7.23;;;3.93;;
485;SDS011;229;48.734;9.340;2023-07-16T09:52:30;6.97;;;3.80;;
485;SDS011;229;48.734;9.340;2023-07-16T09:54:59;5.50;;;3.43;;
485;SDS011;229;48.734;9.340;2023-07-16T09:57:28;5.43;;;3.63;;
485;SDS011;229;48.734;9.340;2023-07-16T09:59:57;5.80;;;3.73;;
485;SDS011;229;48.734;9.340;2023-07-16T10:02:25;6.20;;;3.80;;
485;SDS011;229;48.734;9.340;2023-07-16T10:04:52;4.60;;;3.30;;
485;SDS011;229;48.734;9.340;2023-07-16T10:07:24;5.40;;;3.37;;
485;SDS011;229;48.734;9.340;2023-07-16T10:09:52;5.80;;;3.13;;
485;SDS011;229;48.734;9.340;2023-07-16T10:12:21;4.80;;;3.43;;
485;SDS011;229;48.734;9.340;2023-07-16T10:14:50;3.43;;;3.23;;
485;SDS011;229;48.734;9.340;2023-07-16T10:17:17;4.10;;;3.53;;
485;SDS011;229;48.734;9.340;2023-07-16T10:19:49;5.47;;;3.60;;
485;SDS011;229;48.734;9.340;2023-07-16T10:22:17;4.90;;;3.43;;
485;SDS011;229;48.734;9.340;2023-07-16T10:24:45;4.00;;;3.80;;
485;SDS011;229;48.734;9.340;2023-07-16T10:27:26;3.87;;;3.70;;
485;SDS011;229;48.734;9.340;2023-07-16T10:29:53;6.00;;;3.70;;
485;SDS011;229;48.734;9.340;2023-07-16T10:32:21;4.03;;;3.10;;
485;SDS011;229;48.734;9.340;2023-07-16T10:34:48;8.80;;;4.50;;
485;SDS011;229;48.734;9.340;2023-07-16T10:37:15;3.27;;;3.07;;
485;SDS011;229;48.734;9.340;2023-07-16T10:39:47;5.50;;;3.60;;
485;SDS011;229;48.734;9.340;2023-07-16T10:42:15;3.70;;;3.50;;
485;SDS011;229;48.734;9.340;2023-07-16T10:44:43;6.03;;;3.50;;
485;SDS011;229;48.734;9.340;2023-07-16T10:47:17;5.47;;;4.07;;
485;SDS011;229;48.734;9.340;2023-07-16T10:49:46;5.17;;;3.27;;
485;SDS011;229;48.734;9.340;2023-07-16T10:52:13;4.70;;;3.50;;
485;SDS011;229;48.734;9.340;2023-07-16T10:54:40;6.93;;;4.17;;
485;SDS011;229;48.734;9.340;2023-07-16T10:57:09;4.50;;;3.37;;
485;SDS011;229;48.734;9.340;2023-07-16T10:59:37;7.10;;;3.60;;
485;SDS011;229;48.734;9.340;2023-07-16T11:02:05;7.57;;;4.00;;
485;SDS011;229;48.734;9.340;2023-07-16T11:04:33;6.40;;;3.73;;
485;SDS011;229;48.734;9.340;2023-07-16T11:07:03;5.00;;;3.10;;
485;SDS011;229;48.734;9.340;2023-07-16T11:09:31;5.93;;;3.90;;
485;SDS011;229;48.734;9.340;2023-07-16T11:12:05;4.60;;;3.20;;
485;SDS011;229;48.734;9.340;2023-07-16T11:14:33;5.30;;;3.90;;
485;SDS011;229;48.734;9.340;2023-07-16T11:17:04;3.73;;;3.57;;
485;SDS011;229;48.734;9.340;2023-07-16T11:19:32;4.30;;;4.00;;
485;SDS011;229;48.734;9.340;2023-07-16T11:22:00;3.60;;;3.43;;
485;SDS011;229;48.734;9.340;2023-07-16T11:24:27;6.47;;;3.37;;
485;SDS011;229;48.734;9.340;2023-07-16T11:26:54;5.10;;;3.77;;
485;SDS011;229;48.734;9.340;2023-07-16T11:29:23;5.87;;;3.67;;
485;SDS011;229;48.734;9.340;2023-07-16T11:31:52;4.07;;;3.40;;
485;SDS011;229;48.734;9.340;2023-07-16T11:34:19;5.30;;;3.40;;
485;SDS011;229;48.734;9.340;2023-07-16T11:36:48;4.57;;;3.40;;
485;SDS011;229;48.734;9.340;2023-07-16T11:39:15;6.07;;;3.50;;
485;SDS011;229;48.734;9.340;2023-07-16T11:41:53;3.50;;;3.20;;
485;SDS011;229;48.734;9.340;2023-07-16T11:44:20;4.23;;;3.50;;
485;SDS011;229;48.734;9.340;2023-07-16T11:46:47;11.33;;;3.70;;
485;SDS011;229;48.734;9.340;2023-07-16T11:49:16;6.60;;;3.77;;
485;SDS011;229;48.734;9.340;2023-07-16T11:51:43;7.23;;;3.60;;
485;SDS011;229;48.734;9.340;2023-07-16T11:54:10;5.60;;;4.53;;
485;SDS011;229;48.734;9.340;2023-07-16T11:56:37;5.47;;;4.33;;
485;SDS011;229;48.734;9.340;2023-07-16T11:59:05;5.40;;;3.47;;
485;SDS011;229;48.734;9.340;2023-07-16T12:01:32;4.60;;;3.97;;
485;SDS011;229;48.734;9.340;2023-07-16T12:03:59;3.70;;;3.50;;
485;SDS011;229;48.734;9.340;2023-07-16T12:06:27;4.53;;;4.10;;
485;SDS011;229;48.734;9.340;2023-07-16T12:08:55;4.03;;;3.70;;
485;SDS011;229;48.734;9.340;2023-07-16T12:11:22;4.50;;;4.10;;
485;SDS011;229;48.734;9.340;2023-07-16T12:13:49;4.50;;;4.07;;
485;SDS011;229;48.734;9.340;2023-07-16T12:16:16;5.63;;;4.07;;
485;SDS011;229;48.734;9.340;2023-07-16T12:18:43;4.27;;;4.00;;
485;SDS011;229;48.734;9.340;2023-07-16T12:21:10;5.33;;;4.50;;
485;SDS011;229;48.734;9.340;2023-07-16T12:23:39;4.90;;;3.67;;
485;SDS011;229;48.734;9.340;2023-07-16T12:26:06;4.67;;;4.03;;
485;SDS011;229;48.734;9.340;2023-07-16T12:28:34;4.70;;;4.40;;
485;SDS011;229;48.734;9.340;2023-07-16T12:31:01;4.50;;;3.80;;
485;SDS011;229;48.734;9.340;2023-07-16T12:33:28;5.07;;;3.90;;
485;SDS011;229;48.734;9.340;2023-07-16T12:35:57;5.00;;;4.13;;
485;SDS011;229;48.734;9.340;2023-07-16T12:38:24;7.03;;;4.17;;
485;SDS011;229;48.734;9.340;2023-07-16T12:40:52;5.33;;;3.87;;
485;SDS011;229;48.734;9.340;2023-07-16T12:43:19;4.80;;;4.20;;
485;SDS011;229;48.734;9.340;2023-07-16T12:45:47;5.37;;;4.43;;
485;SDS011;229;48.734;9.340;2023-07-16T12:48:14;6.43;;;4.10;;
485;SDS011;229;48.734;9.340;2023-07-16T12:50:41;3.70;;;3.50;;
485;SDS011;229;48.734;9.340;2023-07-16T12:53:08;4.37;;;3.90;;
485;SDS011;229;48.734;9.340;2023-07-16T12:55:35;5.20;;;4.20;;
485;SDS011;229;48.734;9.340;2023-07-16T12:58:04;5.40;;;3.80;;
485;SDS011;229;48.734;9.340;2023-07-16T13:00:31;3.80;;;3.30;;
485;SDS011;229;48.734;9.340;2023-07-16T13:02:58;4.27;;;3.70;;
485;SDS011;229;48.734;9.340;2023-07-16T13:05:26;5.13;;;4.27;;
485;SDS011;229;48.734;9.340;2023-07-16T13:07:53;4.47;;;4.17;;
485;SDS011;229;48.734;9.340;2023-07-16T13:10:20;6.30;;;3.53;;
485;SDS011;229;48.734;9.340;2023-07-16T13:12:47;5.80;;;3.70;;
485;SDS011;229;48.734;9.340;2023-07-16T13:15:16;4.10;;;3.40;;
485;SDS011;229;48.734;9.340;2023-07-16T13:17:43;3.60;;;3.40;;
485;SDS011;229;48.734;9.340;2023-07-16T13:20:10;3.20;;;3.00;;
485;SDS011;229;48.734;9.340;2023-07-16T13:22:38;3.73;;;3.57;;
485;SDS011;229;48.734;9.340;2023-07-16T13:25:05;5.10;;;3.70;;
485;SDS011;229;48.734;9.340;2023-07-16T13:27:32;5.63;;;3.47;;
485;SDS011;229;48.734;9.340;2023-07-16T13:29:59;4.37;;;3.73;;
485;SDS011;229;48.734;9.340;2023-07-16T13:32:28;3.60;;;3.47;;
485;SDS011;229;48.734;9.340;2023-07-16T13:34:55;5.47;;;3.87;;
485;SDS011;229;48.734;9.340;2023-07-16T13:37:22;4.30;;;3.50;;
485;SDS011;229;48.734;9.340;2023-07-16T13:39:50;5.30;;;3.60;;
485;SDS011;229;48.734;9.340;2023-07-16T13:42:17;4.07;;;3.90;;
485;SDS011;229;48.734;9.340;2023-07-16T13:44:44;4.20;;;3.97;;
485;SDS011;229;48.734;9.340;2023-07-16T13:47:11;5.37;;;3.63;;
485;SDS011;229;48.734;9.340;2023-07-16T13:49:40;5.93;;;3.70;;
485;SDS011;229;48.734;9.340;2023-07-16T13:52:07;4.80;;;3.60;;
485;SDS011;229;48.734;9.340;2023-07-16T13:54:34;5.53;;;4.10;;
485;SDS011;229;48.734;9.340;2023-07-16T13:57:01;5.30;;;3.77;;
485;SDS011;229;48.734;9.340;2023-07-16T13:59:28;5.30;;;3.70;;
485;SDS011;229;48.734;9.340;2023-07-16T14:01:59;4.30;;;3.30;;
485;SDS011;229;48.734;9.340;2023-07-16T14:04:26;3.80;;;3.50;;
485;SDS011;229;48.734;9.340;2023-07-16T14:06:55;3.60;;;3.40;;
485;SDS011;229;48.734;9.340;2023-07-16T14:09:22;4.30;;;3.40;;
485;SDS011;229;48.734;9.340;2023-07-16T14:11:49;6.77;;;5.47;;
485;SDS011;229;48.734;9.340;2023-07-16T14:14:17;6.03;;;4.10;;
485;SDS011;229;48.734;9.340;2023-07-16T14:16:44;3.70;;;3.50;;
485;SDS011;229;48.734;9.340;2023-07-16T14:19:11;3.70;;;3.10;;
485;SDS011;229;48.734;9.340;2023-07-16T14:21:38;3.40;;;3.20;;
485;SDS011;229;48.734;9.340;2023-07-16T14:24:07;4.30;;;3.60;;
485;SDS011;229;48.734;9.340;2023-07-16T14:26:35;3.60;;;3.40;;
485;SDS011;229;48.734;9.340;2023-07-16T14:29:02;4.77;;;3.60;;
485;SDS011;229;48.734;9.340;2023-07-16T14:31:29;6.00;;;3.73;;
485;SDS011;229;48.734;9.340;2023-07-16T14:33:57;4.80;;;3.90;;
485;SDS011;229;48.734;9.340;2023-07-16T14:36:24;6.17;;;4.10;;
485;SDS011;229;48.734;9.340;2023-07-16T14:38:52;5.40;;;3.63;;
485;SDS011;229;48.734;9.340;2023-07-16T14:41:21;3.77;;;3.57;;
485;SDS011;229;48.734;9.340;2023-07-16T14:43:48;4.87;;;3.87;;
485;SDS011;229;48.734;9.340;2023-07-16T14:46:15;3.93;;;3.73;;
485;SDS011;229;48.734;9.340;2023-07-16T14:48:42;5.83;;;3.80;;
485;SDS011;229;48.734;9.340;2023-07-16T14:51:10;4.90;;;3.70;;
485;SDS011;229;48.734;9.340;2023-07-16T14:53:37;4.63;;;3.83;;
485;SDS011;229;48.734;9.340;2023-07-16T14:56:04;4.00;;;3.70;;
485;SDS011;229;48.734;9.340;2023-07-16T14:58:33;6.10;;;3.97;;
485;SDS011;229;48.734;9.340;2023-07-16T15:01:01;3.60;;;3.40;;
485;SDS011;229;48.734;9.340;2023-07-16T15:03:32;4.17;;;3.93;;
485;SDS011;229;48.734;9.340;2023-07-16T15:06:00;8.63;;;3.73;;
485;SDS011;229;48.734;9.340;2023-07-16T15:08:28;6.10;;;3.80;;
485;SDS011;229;48.734;9.340;2023-07-16T15:10:55;6.17;;;3.80;;
485;SDS011;229;48.734;9.340;2023-07-16T15:13:23;5.37;;;4.20;;
485;SDS011;229;48.734;9.340;2023-07-16T15:15:54;4.53;;;3.93;;
485;SDS011;229;48.734;9.340;2023-07-16T15:18:23;4.30;;;4.00;;
485;SDS011;229;48.734;9.340;2023-07-16T15:20:54;5.93;;;3.90;;
485;SDS011;229;48.734;9.340;2023-07-16T15:23:22;7.17;;;3.90;;
485;SDS011;229;48.734;9.340;2023-07-16T15:25:49;6.03;;;4.03;;
485;SDS011;229;48.734;9.340;2023-07-16T15:28:16;6.83;;;4.83;;
485;SDS011;229;48.734;9.340;2023-07-16T15:30:43;4.03;;;3.20;;
485;SDS011;229;48.734;9.340;2023-07-16T15:33:12;4.50;;;3.60;;
485;SDS011;229;48.734;9.340;2023-07-16T15:35:39;4.27;;;3.40;;
485;SDS011;229;48.734;9.340;2023-07-16T15:38:06;4.60;;;4.00;;
485;SDS011;229;48.734;9.340;2023-07-16T15:40:33;6.60;;;3.70;;
485;SDS011;229;48.734;9.340;2023-07-16T15:43:00;6.40;;;3.40;;
485;SDS011;229;48.734;9.340;2023-07-16T15:45:28;4.70;;;3.90;;
485;SDS011;229;48.734;9.340;2023-07-16T15:47:55;5.67;;;4.57;;